CheckWX is a tool to help pilots better visualize weather data.  It is not intended as a substitute for an official pre-flight weather briefing.

12:40:50 UTC

KIZG METAR
Eastern Slopes Regional Airport
Fryeburg, Maine, USA
Current

47 mins ago

KIZG 251154Z AUTO VRB06KT 10SM CLR M02/M12 A3005 RMK AO2 SLP182 T10171122 10028 21028 52026
Observed
Mar-25 @ 11:54 UTC
Wind
  • Variable at 6 KTS
Visibility
10 SM
Flight Rules
VFR
Cloud Levels
  • Clear skies
Temperature
-2°C / 28°F
Dewpoint
-12°C / 10°F
Humidity
47%
Altimeter
30.05" Hg
Pressure
1018.2 hPa
Previous

2 hours ago

KIZG 251054Z AUTO 27007KT 10SM CLR M02/M11 A3003 RMK AO2 SLP173 T10221111
Observed
Mar-25 @ 10:54 UTC
Wind
  • 270° at 7 KTS
Visibility
10 SM
Flight Rules
VFR
Cloud Levels
  • Clear skies
Temperature
-2°C / 28°F
Dewpoint
-11°C / 12°F
Humidity
51%
Altimeter
30.03" Hg
Pressure
1017.3 hPa
Previous

3 hours ago

KIZG 250954Z AUTO 00000KT 10SM CLR M01/M06 A3000 RMK AO2 SLP163 T10111061
Observed
Mar-25 @ 09:54 UTC
Visibility
10 SM
Flight Rules
VFR
Cloud Levels
  • Clear skies
Temperature
-1°C / 30°F
Dewpoint
-6°C / 21°F
Humidity
69%
Altimeter
30" Hg
Pressure
1016.3 hPa